Time;durP1;ratioP1;P1;durP2;ratioP2;P2;SDS_P1;SDS_P2;PMS_P1;PMS_P2;Temp;Humidity;BMP_temperature;BMP_pressure;BME280_temperature;BME280_humidity;BME280_pressure;Samples;Min_cycle;Max_cycle;Signal;HPM_P1;HPM_P2
2023/06/09 00:02:21;;;;;;;16.93;15.27;;;18.80;1.00;;;;;;5050018;28;20237;-55
2023/06/09 00:04:48;;;;;;;15.30;13.97;;;18.70;1.00;;;;;;5052745;28;20637;-52
2023/06/09 00:07:16;;;;;;;16.37;15.07;;;18.70;1.00;;;;;;5052756;28;20545;-58
2023/06/09 00:09:45;;;;;;;16.17;14.90;;;18.70;1.00;;;;;;5054305;28;20511;-56
2023/06/09 00:12:12;;;;;;;17.10;15.70;;;18.70;1.00;;;;;;5047976;28;20523;-55
2023/06/09 00:14:38;;;;;;;16.57;15.10;;;18.70;1.00;;;;;;5047979;28;20458;-53
2023/06/09 00:17:08;;;;;;;17.97;16.03;;;18.60;1.00;;;;;;5051346;28;20443;-53
2023/06/09 00:19:35;;;;;;;16.23;14.83;;;18.60;1.00;;;;;;5048368;28;20482;-53
2023/06/09 00:22:01;;;;;;;15.20;13.90;;;18.70;1.00;;;;;;5063102;28;20451;-54
2023/06/09 00:24:26;;;;;;;17.07;15.27;;;18.70;1.00;;;;;;5052695;28;20591;-53
2023/06/09 00:26:52;;;;;;;16.40;15.13;;;18.60;1.00;;;;;;5057098;28;20200;-54
2023/06/09 00:29:21;;;;;;;16.30;14.90;;;18.60;1.00;;;;;;5045838;28;20633;-55
2023/06/09 00:31:47;;;;;;;16.57;15.07;;;18.70;1.00;;;;;;5051698;28;20476;-54
2023/06/09 00:34:13;;;;;;;16.00;14.50;;;18.60;1.00;;;;;;5047759;28;20910;-56
2023/06/09 00:36:39;;;;;;;16.67;15.17;;;18.50;1.00;;;;;;5053774;28;20479;-54
2023/06/09 00:39:05;;;;;;;16.80;15.40;;;18.50;1.00;;;;;;5063756;28;20671;-56
2023/06/09 00:41:38;;;;;;;16.43;15.03;;;18.50;1.00;;;;;;5046018;28;20457;-51
2023/06/09 00:44:04;;;;;;;16.50;15.10;;;18.40;1.00;;;;;;5049007;28;20545;-53
2023/06/09 00:46:30;;;;;;;16.70;15.30;;;18.40;1.00;;;;;;5048555;28;20969;-54
2023/06/09 00:48:56;;;;;;;16.87;15.27;;;18.50;1.00;;;;;;5042882;28;20471;-56
2023/06/09 00:51:22;;;;;;;15.77;14.37;;;18.50;1.00;;;;;;5052452;28;20588;-54
2023/06/09 00:53:48;;;;;;;17.17;15.57;;;18.50;1.00;;;;;;5049194;28;20416;-54
2023/06/09 00:56:14;;;;;;;16.63;15.23;;;18.40;1.00;;;;;;5052425;28;20447;-55
2023/06/09 00:58:40;;;;;;;15.70;14.50;;;18.40;1.00;;;;;;5050964;28;20187;-54
2023/06/09 01:01:05;;;;;;;16.00;14.77;;;18.50;1.00;;;;;;5056216;28;20454;-55
2023/06/09 01:03:32;;;;;;;19.07;17.20;;;18.40;1.00;;;;;;5047518;28;20188;-55
2023/06/09 01:06:12;;;;;;;16.77;15.47;;;18.40;1.00;;;;;;5052781;28;20275;-55
2023/06/09 01:08:45;;;;;;;16.67;15.17;;;18.30;1.00;;;;;;5052172;28;20559;-53
2023/06/09 01:11:26;;;;;;;16.60;15.10;;;18.30;1.00;;;;;;5048145;28;20472;-54
2023/06/09 01:14:18;;;;;;;15.87;14.67;;;18.30;1.00;;;;;;5037449;28;20579;-55
2023/06/09 01:16:57;;;;;;;17.57;15.87;;;18.20;1.00;;;;;;5042706;28;20509;-52
2023/06/09 01:19:33;;;;;;;16.40;15.10;;;18.20;1.00;;;;;;5046907;28;20759;-53
2023/06/09 01:22:19;;;;;;;15.33;13.83;;;18.20;1.00;;;;;;5060103;28;20427;-54
2023/06/09 01:25:04;;;;;;;15.87;14.43;;;18.20;1.00;;;;;;5059912;28;20446;-51
2023/06/09 01:27:33;;;;;;;16.23;14.73;;;18.10;1.00;;;;;;5047159;28;20442;-55
2023/06/09 01:30:00;;;;;;;17.13;15.50;;;18.10;1.00;;;;;;5062739;28;20524;-54
2023/06/09 01:32:27;;;;;;;16.03;14.53;;;18.10;1.00;;;;;;5056057;28;20782;-53
2023/06/09 01:34:53;;;;;;;16.00;14.60;;;18.00;1.00;;;;;;5046217;28;20508;-56
2023/06/09 01:37:20;;;;;;;15.17;13.90;;;18.00;1.00;;;;;;5051928;28;20813;-52
2023/06/09 01:39:50;;;;;;;15.37;14.07;;;17.90;1.00;;;;;;5059550;28;20789;-53
2023/06/09 01:42:15;;;;;;;14.77;13.47;;;17.90;1.00;;;;;;5063123;28;20449;-55
2023/06/09 01:44:41;;;;;;;14.07;13.00;;;17.90;1.00;;;;;;5048302;28;20473;-52
2023/06/09 01:47:07;;;;;;;16.30;14.83;;;17.90;1.00;;;;;;5054557;28;20283;-54
2023/06/09 01:49:58;;;;;;;14.90;13.53;;;17.90;1.00;;;;;;5057766;28;20848;-54
2023/06/09 01:52:45;;;;;;;16.40;15.00;;;17.80;1.00;;;;;;5060801;28;20213;-52
2023/06/09 01:55:19;;;;;;;15.50;14.20;;;17.70;1.00;;;;;;5051690;28;21003;-52
2023/06/09 01:57:59;;;;;;;14.77;13.47;;;17.70;1.00;;;;;;5053974;28;20823;-55
2023/06/09 02:00:26;;;;;;;17.30;13.87;;;17.80;1.00;;;;;;5066012;28;20556;-56
2023/06/09 02:02:56;;;;;;;15.33;13.70;;;17.80;1.00;;;;;;5048295;28;20439;-55
2023/06/09 02:05:22;;;;;;;14.40;13.03;;;17.80;1.00;;;;;;5051993;28;20523;-53
2023/06/09 02:07:51;;;;;;;15.10;13.37;;;17.80;1.00;;;;;;5060464;28;20442;-53
2023/06/09 02:10:20;;;;;;;14.70;13.40;;;17.70;1.00;;;;;;5054706;28;20757;-53
2023/06/09 02:12:45;;;;;;;15.07;13.87;;;17.70;1.00;;;;;;5050929;28;20451;-54
2023/06/09 02:15:11;;;;;;;15.60;14.20;;;17.60;1.00;;;;;;5052523;28;20912;-54
2023/06/09 02:17:36;;;;;;;15.10;13.60;;;17.50;1.00;;;;;;5061451;28;20183;-55
2023/06/09 02:20:05;;;;;;;15.60;14.30;;;17.50;1.00;;;;;;5062901;28;20198;-54
2023/06/09 02:22:31;;;;;;;14.80;13.60;;;17.50;1.00;;;;;;5052124;28;20184;-54
2023/06/09 02:24:57;;;;;;;15.07;13.77;;;17.50;1.00;;;;;;5048162;28;20453;-52
2023/06/09 02:27:22;;;;;;;14.60;13.33;;;17.50;1.00;;;;;;5058265;28;20180;-54
2023/06/09 02:29:48;;;;;;;15.20;13.67;;;17.50;1.00;;;;;;5056072;28;20444;-51
2023/06/09 02:32:13;;;;;;;15.47;14.00;;;17.50;1.00;;;;;;5048594;28;20201;-53
2023/06/09 02:34:41;;;;;;;15.20;13.60;;;17.40;1.00;;;;;;5055130;28;20598;-52
2023/06/09 02:37:07;;;;;;;15.37;13.97;;;17.40;1.00;;;;;;5067016;28;20238;-56
2023/06/09 02:39:34;;;;;;;14.80;13.43;;;17.40;1.00;;;;;;5053820;28;20447;-52
2023/06/09 02:42:00;;;;;;;15.67;14.17;;;17.40;1.00;;;;;;5056394;28;20457;-53
2023/06/09 02:44:28;;;;;;;14.90;13.50;;;17.40;1.00;;;;;;5053216;28;20499;-53
2023/06/09 02:46:54;;;;;;;15.97;14.20;;;17.50;1.00;;;;;;5044061;28;20454;-54
2023/06/09 02:49:20;;;;;;;15.30;13.90;;;17.40;1.00;;;;;;5056885;28;20491;-54
2023/06/09 02:51:45;;;;;;;15.67;14.27;;;17.40;1.00;;;;;;5051752;28;20231;-52
2023/06/09 02:54:11;;;;;;;15.03;13.73;;;17.40;1.00;;;;;;5051204;28;20648;-51
2023/06/09 02:56:36;;;;;;;14.90;13.60;;;17.40;1.00;;;;;;5051129;28;20181;-54
2023/06/09 02:59:02;;;;;;;16.57;14.87;;;17.40;1.00;;;;;;5060461;28;20669;-55
2023/06/09 03:01:34;;;;;;;14.73;13.40;;;17.40;1.00;;;;;;5057935;28;20183;-57
2023/06/09 03:04:02;;;;;;;16.43;14.93;;;17.40;1.00;;;;;;5051703;28;20442;-53
2023/06/09 03:06:29;;;;;;;16.70;15.30;;;17.40;1.00;;;;;;5062068;28;20443;-54
2023/06/09 03:08:55;;;;;;;23.60;20.70;;;17.40;1.00;;;;;;5062214;28;20471;-52
2023/06/09 03:11:20;;;;;;;18.27;16.67;;;17.50;1.00;;;;;;5051916;28;20466;-53
2023/06/09 03:13:46;;;;;;;18.53;16.63;;;17.50;1.00;;;;;;5055888;28;20181;-53
2023/06/09 03:16:12;;;;;;;17.20;15.50;;;17.40;1.00;;;;;;5051837;28;20216;-54
2023/06/09 03:18:38;;;;;;;15.93;14.50;;;17.50;1.00;;;;;;5054130;28;20211;-54
2023/06/09 03:21:04;;;;;;;15.03;13.53;;;17.50;1.00;;;;;;5061177;28;20936;-52
2023/06/09 03:23:31;;;;;;;15.10;13.70;;;17.50;1.00;;;;;;5052662;28;20196;-53
2023/06/09 03:25:57;;;;;;;15.50;14.13;;;17.50;1.00;;;;;;5048345;28;20509;-54
2023/06/09 03:28:23;;;;;;;14.57;13.27;;;17.50;1.00;;;;;;5053921;28;20451;-54
2023/06/09 03:30:49;;;;;;;13.93;12.83;;;17.50;1.00;;;;;;5056795;28;20482;-56
2023/06/09 03:33:15;;;;;;;14.30;12.80;;;17.40;1.00;;;;;;5053271;28;20189;-53
2023/06/09 03:35:40;;;;;;;15.67;14.17;;;17.40;1.00;;;;;;5062972;28;20262;-52
2023/06/09 03:38:06;;;;;;;15.40;13.87;;;17.40;1.00;;;;;;5052974;28;20549;-52
2023/06/09 03:40:34;;;;;;;15.37;13.93;;;17.50;1.00;;;;;;5050683;28;20204;-55
2023/06/09 03:42:59;;;;;;;15.30;13.80;;;17.40;1.00;;;;;;5054355;28;20195;-54
2023/06/09 03:45:25;;;;;;;15.03;13.77;;;17.50;1.00;;;;;;5051307;28;20459;-55
2023/06/09 03:47:51;;;;;;;14.03;12.93;;;17.60;1.00;;;;;;5057397;28;20266;-52
2023/06/09 03:50:17;;;;;;;13.87;12.67;;;17.70;1.00;;;;;;5052959;28;20695;-52
2023/06/09 03:52:42;;;;;;;14.53;13.33;;;17.80;1.00;;;;;;5050891;28;20489;-54
2023/06/09 03:55:08;;;;;;;14.67;13.47;;;17.80;1.00;;;;;;5059160;28;20176;-54
2023/06/09 03:57:34;;;;;;;13.63;12.53;;;17.70;1.00;;;;;;5049151;28;20586;-54
2023/06/09 03:59:59;;;;;;;15.20;13.50;;;17.80;1.00;;;;;;5050915;28;20605;-54
2023/06/09 04:02:25;;;;;;;14.40;12.90;;;17.80;1.00;;;;;;5061572;28;20179;-54
2023/06/09 04:04:51;;;;;;;14.50;13.20;;;17.80;1.00;;;;;;5052137;28;20184;-53
2023/06/09 04:07:17;;;;;;;15.10;13.47;;;17.80;1.00;;;;;;5046359;28;20192;-52
2023/06/09 04:09:42;;;;;;;14.27;12.80;;;17.80;1.00;;;;;;5046755;28;20704;-54
2023/06/09 04:12:08;;;;;;;14.10;12.80;;;17.80;1.00;;;;;;5042569;28;20481;-51
2023/06/09 04:14:34;;;;;;;14.77;13.57;;;17.90;1.00;;;;;;5044657;28;20207;-54
2023/06/09 04:17:00;;;;;;;14.37;12.97;;;17.90;1.00;;;;;;5049487;28;20184;-55
2023/06/09 04:19:25;;;;;;;15.03;13.83;;;17.90;1.00;;;;;;5044262;28;20185;-56
2023/06/09 04:21:51;;;;;;;15.23;14.03;;;18.00;1.00;;;;;;5043985;28;20185;-52
2023/06/09 04:24:16;;;;;;;14.70;13.43;;;18.00;1.00;;;;;;5045956;28;20216;-55
2023/06/09 04:26:44;;;;;;;15.40;13.63;;;18.00;1.00;;;;;;5060502;28;20195;-55
2023/06/09 04:29:10;;;;;;;15.50;14.10;;;17.90;1.00;;;;;;5050972;28;20659;-53
2023/06/09 04:31:42;;;;;;;15.23;13.73;;;17.90;1.00;;;;;;5051774;28;20472;-56
2023/06/09 04:34:12;;;;;;;16.30;14.00;;;18.10;1.00;;;;;;5052133;28;20450;-53
2023/06/09 04:36:39;;;;;;;15.57;14.10;;;18.20;1.00;;;;;;5051077;28;20442;-55
2023/06/09 04:39:07;;;;;;;15.83;14.00;;;18.20;1.00;;;;;;5056471;28;20446;-52
2023/06/09 04:41:33;;;;;;;14.27;13.07;;;18.20;1.00;;;;;;5048545;28;20447;-54
2023/06/09 04:44:05;;;;;;;15.17;13.77;;;18.20;1.00;;;;;;5049823;28;20780;-57
2023/06/09 04:46:37;;;;;;;16.30;15.00;;;18.30;1.00;;;;;;5049290;28;20455;-53
2023/06/09 04:49:08;;;;;;;14.97;13.47;;;18.40;1.00;;;;;;5046269;28;20444;-53
2023/06/09 04:51:41;;;;;;;15.30;14.00;;;18.30;1.00;;;;;;5052557;28;20463;-54
2023/06/09 04:54:09;;;;;;;16.17;14.77;;;18.40;1.00;;;;;;5048946;28;20447;-55
2023/06/09 04:56:36;;;;;;;15.50;14.00;;;18.40;1.00;;;;;;5054711;28;20450;-54
2023/06/09 04:59:03;;;;;;;17.60;15.90;;;18.50;1.00;;;;;;5050206;28;20495;-53
2023/06/09 05:01:30;;;;;;;16.47;14.10;;;18.50;1.00;;;;;;5049928;28;21090;-55
2023/06/09 05:03:56;;;;;;;14.80;13.50;;;18.50;1.00;;;;;;5047612;28;20479;-56
2023/06/09 05:06:22;;;;;;;15.50;14.20;;;18.60;1.00;;;;;;5044537;28;20452;-54
2023/06/09 05:08:50;;;;;;;14.87;13.67;;;18.70;1.00;;;;;;5051733;28;20496;-54
2023/06/09 05:11:16;;;;;;;15.37;13.70;;;18.70;1.00;;;;;;5052102;28;20212;-53
2023/06/09 05:13:41;;;;;;;15.53;13.93;;;18.80;1.00;;;;;;5049763;28;20794;-55
2023/06/09 05:16:07;;;;;;;14.80;13.50;;;18.90;1.00;;;;;;5042043;28;20208;-54
2023/06/09 05:18:33;;;;;;;14.93;13.73;;;18.90;1.00;;;;;;5051318;28;20184;-57
2023/06/09 05:20:58;;;;;;;16.70;15.20;;;19.00;1.00;;;;;;5047255;28;20185;-56
2023/06/09 05:23:24;;;;;;;16.33;14.90;;;19.00;1.00;;;;;;5048804;28;20192;-55
2023/06/09 05:25:50;;;;;;;15.97;14.53;;;19.10;1.00;;;;;;5046912;28;20194;-55
2023/06/09 05:28:15;;;;;;;17.93;16.43;;;19.20;1.00;;;;;;5050702;28;20188;-53
2023/06/09 05:30:41;;;;;;;15.07;13.87;;;19.30;1.00;;;;;;5051056;28;20483;-55
2023/06/09 05:33:07;;;;;;;17.00;15.40;;;19.30;1.00;;;;;;5048364;28;20183;-54
2023/06/09 05:35:33;;;;;;;16.87;15.57;;;19.30;1.00;;;;;;5052760;28;20618;-54
2023/06/09 05:37:58;;;;;;;15.90;14.63;;;19.50;1.00;;;;;;5048577;28;20184;-54
2023/06/09 05:40:24;;;;;;;17.37;15.67;;;19.60;1.00;;;;;;5058218;28;20680;-53
2023/06/09 05:42:50;;;;;;;15.47;14.17;;;19.90;1.00;;;;;;5048597;28;20661;-53
2023/06/09 05:45:15;;;;;;;14.93;13.53;;;20.20;1.00;;;;;;5057396;28;20676;-53
2023/06/09 05:47:41;;;;;;;15.40;13.93;;;20.40;1.00;;;;;;5044277;28;20446;-55
2023/06/09 05:50:07;;;;;;;17.50;15.93;;;20.40;1.00;;;;;;5049685;28;20636;-52
2023/06/09 05:52:33;;;;;;;16.50;15.00;;;20.60;1.00;;;;;;5051670;28;20290;-54
2023/06/09 05:55:00;;;;;;;16.97;15.67;;;20.80;1.00;;;;;;5055889;28;20398;-55
2023/06/09 05:57:29;;;;;;;15.53;14.17;;;20.80;1.00;;;;;;5049636;28;20767;-55
2023/06/09 05:59:58;;;;;;;17.10;15.50;;;20.90;1.00;;;;;;5062182;28;20473;-55
2023/06/09 06:02:24;;;;;;;18.23;16.63;;;20.80;1.00;;;;;;5047937;28;20521;-53
2023/06/09 06:04:50;;;;;;;18.13;16.07;;;20.80;1.00;;;;;;5047610;28;20961;-55
2023/06/09 06:07:17;;;;;;;16.77;15.23;;;20.70;1.00;;;;;;5043009;28;20190;-53
2023/06/09 06:09:43;;;;;;;16.50;15.17;;;20.70;1.00;;;;;;5053976;28;20475;-52
2023/06/09 06:12:10;;;;;;;19.13;17.47;;;20.70;1.00;;;;;;5047320;28;20523;-55
2023/06/09 06:14:36;;;;;;;19.63;17.93;;;21.00;1.00;;;;;;5046898;28;20194;-54
2023/06/09 06:17:04;;;;;;;19.43;17.63;;;21.20;1.00;;;;;;5043450;28;20455;-54
2023/06/09 06:19:30;;;;;;;18.70;16.97;;;21.20;1.00;;;;;;5045640;28;20185;-53
2023/06/09 06:21:55;;;;;;;19.67;17.93;;;21.20;1.00;;;;;;5046094;28;20851;-55
2023/06/09 06:24:21;;;;;;;19.50;17.80;;;21.00;1.00;;;;;;5048897;28;20204;-54
2023/06/09 06:26:47;;;;;;;18.47;16.97;;;20.90;1.00;;;;;;5048142;28;20515;-54
2023/06/09 06:29:12;;;;;;;20.53;18.60;;;20.90;1.00;;;;;;5047340;28;20673;-55
2023/06/09 06:31:39;;;;;;;20.07;18.27;;;21.00;1.00;;;;;;5049529;28;20299;-54
2023/06/09 06:34:04;;;;;;;18.97;17.33;;;21.10;1.00;;;;;;5050655;28;20270;-53
2023/06/09 06:36:30;;;;;;;19.23;17.63;;;21.20;1.00;;;;;;5056161;28;20478;-52
2023/06/09 06:38:56;;;;;;;18.90;17.10;;;21.20;1.00;;;;;;5054629;28;20537;-53
2023/06/09 06:41:21;;;;;;;19.80;18.07;;;21.40;1.00;;;;;;5047904;28;20206;-56
2023/06/09 06:43:49;;;;;;;19.43;17.83;;;21.30;1.00;;;;;;5063287;28;20597;-54
2023/06/09 06:46:17;;;;;;;17.93;16.33;;;21.50;1.00;;;;;;5046958;28;20185;-52
2023/06/09 06:48:43;;;;;;;18.63;17.03;;;21.60;1.00;;;;;;5041833;28;20451;-53
2023/06/09 06:51:08;;;;;;;19.20;17.50;;;21.90;1.00;;;;;;5050488;28;20858;-55
2023/06/09 06:53:36;;;;;;;19.63;17.90;;;21.80;1.00;;;;;;5045085;28;20451;-54
2023/06/09 06:56:02;;;;;;;20.10;18.30;;;22.10;1.00;;;;;;5048229;28;20188;-54
2023/06/09 06:58:28;;;;;;;19.40;17.80;;;22.20;1.00;;;;;;5056079;28;20787;-54
2023/06/09 07:00:56;;;;;;;21.20;19.20;;;22.10;1.00;;;;;;5057224;28;20278;-57
2023/06/09 07:03:26;;;;;;;20.30;18.60;;;22.20;1.00;;;;;;5046029;28;20197;-56
2023/06/09 07:05:53;;;;;;;18.90;17.10;;;22.50;1.00;;;;;;5045290;28;20454;-52
2023/06/09 07:08:18;;;;;;;20.73;18.57;;;22.80;1.00;;;;;;5049408;28;20491;-58
2023/06/09 07:10:44;;;;;;;17.30;16.00;;;23.00;99.90;;;;;;5042992;28;20443;-53
2023/06/09 07:13:10;;;;;;;20.70;18.67;;;23.10;99.90;;;;;;5050740;28;20682;-51
2023/06/09 07:15:37;;;;;;;18.83;17.27;;;23.20;99.90;;;;;;5044157;28;20449;-54
2023/06/09 07:18:05;;;;;;;18.70;17.30;;;23.30;99.90;;;;;;5044771;28;20283;-54
2023/06/09 07:20:31;;;;;;;19.10;17.40;;;23.10;99.90;;;;;;5046293;28;20834;-53
2023/06/09 07:22:56;;;;;;;20.17;18.47;;;23.20;99.90;;;;;;5049881;28;20495;-51
2023/06/09 07:25:22;;;;;;;20.23;18.33;;;23.30;99.90;;;;;;5049270;28;20200;-54
2023/06/09 07:27:48;;;;;;;20.20;18.37;;;23.20;99.90;;;;;;5045862;28;20199;-58
2023/06/09 07:30:13;;;;;;;18.40;16.90;;;23.40;99.90;;;;;;5047300;28;20195;-52
2023/06/09 07:32:39;;;;;;;17.83;16.13;;;23.60;99.90;;;;;;5047701;28;20540;-54
2023/06/09 07:35:05;;;;;;;17.90;16.50;;;24.00;99.90;;;;;;5046558;28;20522;-55
2023/06/09 07:37:31;;;;;;;18.03;16.33;;;24.10;99.90;;;;;;5040473;28;20665;-54
2023/06/09 07:39:58;;;;;;;18.57;17.07;;;24.10;99.90;;;;;;5044419;28;20496;-55
2023/06/09 07:42:23;;;;;;;18.53;16.83;;;24.30;99.90;;;;;;5047974;28;20194;-54
2023/06/09 07:44:49;;;;;;;19.13;17.50;;;24.50;99.90;;;;;;5044478;28;20467;-55
2023/06/09 07:47:15;;;;;;;20.47;18.93;;;24.50;99.90;;;;;;5046221;28;20223;-54
2023/06/09 07:49:40;;;;;;;18.57;16.97;;;24.70;99.90;;;;;;5047087;28;20648;-54
2023/06/09 07:52:07;;;;;;;19.87;18.10;;;24.60;99.90;;;;;;5047716;28;20211;-53
2023/06/09 07:54:32;;;;;;;19.80;18.00;;;24.70;99.90;;;;;;5058337;28;20205;-54
2023/06/09 07:56:58;;;;;;;20.77;18.97;;;25.00;99.90;;;;;;5058473;28;20926;-53
2023/06/09 07:59:24;;;;;;;19.27;17.87;;;25.30;99.90;;;;;;5049579;28;20552;-55
2023/06/09 08:01:49;;;;;;;18.20;16.60;;;25.30;99.90;;;;;;5048004;28;20201;-53
2023/06/09 08:04:15;;;;;;;17.83;16.43;;;25.20;99.90;;;;;;5048223;28;20217;-54
2023/06/09 08:06:41;;;;;;;17.77;16.30;;;25.30;99.90;;;;;;5042446;28;20233;-54
2023/06/09 08:09:08;;;;;;;18.17;16.43;;;25.60;99.90;;;;;;5048881;28;20201;-52
2023/06/09 08:11:34;;;;;;;17.73;16.27;;;25.80;99.90;;;;;;5050759;28;20496;-53
2023/06/09 08:14:00;;;;;;;18.67;17.17;;;25.70;99.90;;;;;;5047911;28;20939;-54
2023/06/09 08:16:25;;;;;;;20.23;18.60;;;25.60;99.90;;;;;;5050164;28;20239;-55
2023/06/09 08:18:51;;;;;;;21.87;20.07;;;25.80;99.90;;;;;;5045252;28;20764;-52
2023/06/09 08:21:17;;;;;;;19.20;17.80;;;25.90;99.90;;;;;;5045900;28;20194;-52
2023/06/09 08:23:43;;;;;;;21.10;19.37;;;25.40;99.90;;;;;;5048333;28;20209;-53
2023/06/09 08:26:09;;;;;;;23.73;21.43;;;25.50;99.90;;;;;;5040733;28;20464;-54
2023/06/09 08:28:36;;;;;;;21.73;20.10;;;25.30;99.90;;;;;;5046016;28;20423;-54
2023/06/09 08:31:03;;;;;;;20.23;18.60;;;25.00;99.90;;;;;;5048959;28;20994;-54
2023/06/09 08:33:33;;;;;;;21.97;20.00;;;25.00;99.90;;;;;;5041235;28;20448;-51
2023/06/09 08:35:59;;;;;;;22.47;20.57;;;25.10;99.90;;;;;;5056855;28;20486;-54
2023/06/09 08:38:25;;;;;;;22.00;20.30;;;25.30;99.90;;;;;;5042530;28;20442;-52
2023/06/09 08:40:53;;;;;;;21.50;19.57;;;25.30;99.90;;;;;;5044700;28;20502;-54
2023/06/09 08:43:19;;;;;;;19.87;18.47;;;25.30;99.90;;;;;;5051366;28;20186;-54
2023/06/09 08:45:47;;;;;;;19.97;18.47;;;25.60;99.90;;;;;;5045368;28;20428;-54
2023/06/09 08:48:16;;;;;;;20.10;18.50;;;25.70;99.90;;;;;;5056080;28;20183;-52
2023/06/09 08:50:42;;;;;;;20.97;19.37;;;25.70;99.90;;;;;;5051519;28;20470;-52
2023/06/09 08:53:09;;;;;;;20.87;19.07;;;25.90;99.90;;;;;;5047019;28;20457;-51
2023/06/09 08:55:36;;;;;;;20.70;19.10;;;25.90;99.90;;;;;;5040682;28;20940;-55
2023/06/09 08:58:02;;;;;;;19.10;17.67;;;25.90;99.90;;;;;;5045117;28;20514;-54
2023/06/09 09:00:28;;;;;;;20.10;18.50;;;26.00;99.90;;;;;;5059661;28;20601;-54
2023/06/09 09:02:56;;;;;;;18.90;17.37;;;26.30;99.90;;;;;;5054536;28;20942;-53
2023/06/09 09:05:21;;;;;;;20.93;19.20;;;26.30;99.90;;;;;;5045731;28;20831;-55
2023/06/09 09:07:47;;;;;;;19.97;18.00;;;26.30;99.90;;;;;;5046216;28;20567;-55
2023/06/09 09:10:14;;;;;;;18.30;16.90;;;26.30;99.90;;;;;;5043098;28;20458;-56
2023/06/09 09:12:50;;;;;;;15.53;14.13;;;26.50;99.90;;;;;;5065188;28;20326;-52
2023/06/09 09:15:17;;;;;;;16.73;15.13;;;26.70;99.90;;;;;;5056521;28;20410;-53
2023/06/09 09:17:45;;;;;;;16.87;15.57;;;26.90;99.90;;;;;;5053457;28;20955;-53
2023/06/09 09:20:11;;;;;;;15.53;14.13;;;27.40;99.90;;;;;;5044624;28;20456;-55
2023/06/09 09:22:47;;;;;;;14.67;13.47;;;27.40;99.90;;;;;;5043495;28;20954;-56
2023/06/09 09:25:21;;;;;;;14.43;13.33;;;27.60;99.90;;;;;;5047332;28;20202;-56
2023/06/09 09:28:10;;;;;;;14.53;13.23;;;27.90;99.90;;;;;;5054763;28;20843;-55
2023/06/09 09:30:50;;;;;;;15.40;14.30;;;27.80;99.90;;;;;;5036234;28;20812;-55
2023/06/09 09:33:23;;;;;;;14.77;13.30;;;27.50;99.90;;;;;;5042915;28;20431;-54
2023/06/09 09:35:59;;;;;;;12.90;11.80;;;27.40;99.90;;;;;;5039418;28;20506;-54
2023/06/09 09:38:27;;;;;;;13.90;12.70;;;27.20;99.90;;;;;;5048819;28;20443;-55
2023/06/09 09:40:54;;;;;;;14.13;12.83;;;27.20;99.90;;;;;;5041135;28;20437;-54
2023/06/09 09:43:24;;;;;;;14.03;13.03;;;27.50;99.90;;;;;;5047310;28;20457;-53
2023/06/09 09:45:52;;;;;;;14.23;11.90;;;27.60;99.90;;;;;;5040227;28;20429;-53
2023/06/09 09:48:19;;;;;;;11.80;10.70;;;27.50;99.90;;;;;;5043294;28;20501;-52
2023/06/09 09:50:47;;;;;;;13.07;11.97;;;27.30;99.90;;;;;;5054810;28;20963;-54
2023/06/09 09:53:13;;;;;;;11.10;10.10;;;27.40;99.90;;;;;;5052167;28;20448;-54
2023/06/09 09:55:45;;;;;;;10.13;9.33;;;27.40;99.90;;;;;;5049169;28;20988;-56
2023/06/09 09:58:12;;;;;;;10.17;9.40;;;27.40;99.90;;;;;;5055932;28;20919;-51
2023/06/09 10:00:41;;;;;;;9.87;8.97;;;27.30;99.90;;;;;;5045928;28;20934;-54
2023/06/09 10:03:12;;;;;;;9.07;8.30;;;27.10;99.90;;;;;;5040851;28;20820;-54
2023/06/09 10:05:41;;;;;;;9.57;8.87;;;27.20;99.90;;;;;;5053566;28;20419;-53
2023/06/09 10:08:10;;;;;;;9.60;8.70;;;27.20;99.90;;;;;;5050646;28;20456;-55
2023/06/09 10:10:36;;;;;;;10.30;9.40;;;27.20;99.90;;;;;;5043859;28;20891;-55
2023/06/09 10:13:03;;;;;;;9.87;9.07;;;27.40;99.90;;;;;;5048561;28;20963;-55
2023/06/09 10:15:30;;;;;;;14.30;8.97;;;27.40;99.90;;;;;;5047756;28;20432;-53
2023/06/09 10:17:58;;;;;;;10.20;9.30;;;27.50;99.90;;;;;;5045472;28;20448;-53
2023/06/09 10:20:23;;;;;;;10.10;9.20;;;27.60;99.90;;;;;;5054060;28;20414;-54
2023/06/09 10:22:51;;;;;;;10.13;8.40;;;27.80;99.90;;;;;;5054571;28;20556;-52
2023/06/09 10:25:17;;;;;;;10.20;9.37;;;27.60;99.90;;;;;;5036638;28;20357;-54
2023/06/09 10:27:43;;;;;;;11.57;10.30;;;27.60;99.90;;;;;;5044657;28;20509;-55
2023/06/09 10:30:09;;;;;;;10.37;9.40;;;27.60;99.90;;;;;;5052263;28;20481;-55
2023/06/09 10:32:46;;;;;;;10.20;9.40;;;27.70;99.90;;;;;;5057308;28;20457;-55
2023/06/09 10:35:17;;;;;;;17.10;9.93;;;27.80;99.90;;;;;;5048711;28;20951;-52
2023/06/09 10:37:45;;;;;;;10.77;9.97;;;27.90;99.90;;;;;;5049305;28;20447;-55
2023/06/09 10:40:30;;;;;;;10.30;9.20;;;28.20;99.90;;;;;;5060614;28;20853;-53
2023/06/09 10:42:56;;;;;;;10.13;9.23;;;28.50;99.90;;;;;;5043512;28;20491;-54
2023/06/09 10:45:22;;;;;;;9.23;8.53;;;28.70;99.90;;;;;;5043830;28;20499;-55
2023/06/09 10:47:49;;;;;;;10.30;8.93;;;28.80;99.90;;;;;;5042845;28;20192;-52
2023/06/09 10:50:32;;;;;;;9.87;9.07;;;29.10;99.90;;;;;;5042820;28;20957;-53
2023/06/09 10:52:59;;;;;;;8.83;8.20;;;29.10;99.90;;;;;;5042529;28;20864;-53
2023/06/09 10:55:30;;;;;;;10.50;9.60;;;29.00;99.90;;;;;;5049755;28;20835;-52
2023/06/09 10:57:56;;;;;;;8.20;7.50;;;28.90;99.90;;;;;;5045864;28;20453;-53
2023/06/09 11:00:23;;;;;;;7.57;6.97;;;28.80;99.90;;;;;;5045827;28;20583;-54
2023/06/09 11:03:14;;;;;;;8.43;7.83;;;28.80;99.90;;;;;;5051118;28;20975;-52
2023/06/09 11:05:57;;;;;;;8.83;7.90;;;28.60;99.90;;;;;;5050283;28;20476;-56
2023/06/09 11:08:23;;;;;;;9.13;8.23;;;28.20;99.90;;;;;;5051045;28;20411;-54
2023/06/09 11:10:48;;;;;;;9.80;8.90;;;28.30;99.90;;;;;;5051502;28;20521;-53
2023/06/09 11:13:38;;;;;;;9.17;8.50;;;28.50;99.90;;;;;;5055803;28;20268;-54
2023/06/09 11:16:04;;;;;;;9.23;8.53;;;28.70;99.90;;;;;;5047640;28;20188;-55
2023/06/09 11:18:30;;;;;;;8.27;7.67;;;28.90;99.90;;;;;;5045437;28;20446;-55
2023/06/09 11:21:14;;;;;;;8.93;8.33;;;28.90;99.90;;;;;;5045560;28;20497;-53
2023/06/09 11:23:56;;;;;;;7.70;7.10;;;28.90;99.90;;;;;;5049599;28;20449;-53
2023/06/09 11:26:24;;;;;;;8.87;8.17;;;29.00;99.90;;;;;;5044214;28;20453;-51
2023/06/09 11:28:50;;;;;;;8.10;7.50;;;29.10;99.90;;;;;;5050133;28;20442;-53
2023/06/09 11:31:16;;;;;;;9.30;8.60;;;29.10;99.90;;;;;;5058212;28;20473;-53
2023/06/09 11:33:43;;;;;;;8.47;7.83;;;29.10;99.90;;;;;;5049786;28;20506;-53
2023/06/09 11:36:12;;;;;;;13.27;9.70;;;29.10;99.90;;;;;;5052027;28;20452;-56
2023/06/09 11:38:38;;;;;;;9.50;8.60;;;29.00;99.90;;;;;;5042534;28;20452;-52
2023/06/09 11:41:10;;;;;;;9.53;8.53;;;29.10;99.90;;;;;;5049341;28;20430;-54
2023/06/09 11:43:35;;;;;;;9.53;8.73;;;29.30;99.90;;;;;;5051398;28;20533;-55
2023/06/09 11:46:02;;;;;;;10.93;9.20;;;29.40;99.90;;;;;;5061243;28;20477;-55
2023/06/09 11:48:28;;;;;;;9.07;8.20;;;29.50;99.90;;;;;;5057157;28;20195;-53
2023/06/09 11:50:53;;;;;;;8.67;7.97;;;29.60;99.90;;;;;;5049806;28;20471;-52
2023/06/09 11:53:25;;;;;;;9.97;9.27;;;29.60;99.90;;;;;;5055827;28;20281;-52
2023/06/09 11:56:03;;;;;;;9.63;8.90;;;29.70;99.90;;;;;;5053137;28;20229;-53
2023/06/09 11:58:29;;;;;;;9.30;8.70;;;29.60;99.90;;;;;;5050790;28;20459;-53
2023/06/09 12:00:56;;;;;;;9.63;8.93;;;29.50;99.90;;;;;;5052323;28;20489;-55
2023/06/09 12:03:21;;;;;;;10.23;9.37;;;29.40;99.90;;;;;;5056928;28;20532;-54
2023/06/09 12:05:51;;;;;;;9.07;8.37;;;29.10;99.90;;;;;;5053399;28;20520;-53
2023/06/09 12:08:18;;;;;;;9.20;8.50;;;29.00;99.90;;;;;;5061401;28;20202;-54
2023/06/09 12:10:44;;;;;;;9.33;8.67;;;28.80;99.90;;;;;;5053165;28;20607;-54
2023/06/09 12:13:11;;;;;;;8.93;8.23;;;28.80;99.90;;;;;;5046803;28;20938;-54
2023/06/09 12:15:37;;;;;;;8.73;8.03;;;29.00;99.90;;;;;;5041631;28;21112;-55
2023/06/09 12:18:03;;;;;;;8.97;8.30;;;29.20;99.90;;;;;;5051406;28;20484;-54
2023/06/09 12:20:31;;;;;;;8.53;7.47;;;29.10;99.90;;;;;;5039755;28;20228;-54
2023/06/09 12:23:06;;;;;;;8.40;7.70;;;29.10;99.90;;;;;;5025577;28;20541;-55
2023/06/09 12:25:33;;;;;;;7.43;6.80;;;28.80;99.90;;;;;;5032984;28;20444;-55
2023/06/09 12:28:21;;;;;;;6.53;5.93;;;28.60;99.90;;;;;;5037304;28;20557;-54
2023/06/09 12:30:51;;;;;;;5.97;5.57;;;28.80;99.90;;;;;;5045651;28;20884;-54
2023/06/09 12:33:22;;;;;;;6.53;6.13;;;28.80;99.90;;;;;;5046736;28;20469;-56
2023/06/09 12:35:52;;;;;;;5.73;5.23;;;28.70;99.90;;;;;;5049053;28;20412;-53
2023/06/09 12:38:23;;;;;;;6.20;5.70;;;28.70;99.90;;;;;;5038214;28;20524;-53
2023/06/09 12:40:51;;;;;;;7.03;6.33;;;28.90;99.90;;;;;;5036626;28;20434;-53